Time,TemperatureF,DewpointF,PressureIn,WindDirection,WindDirectionDegrees,WindSpeedMPH,WindSpeedGustMPH,Humidity,HourlyPrecipIn,Conditions,Clouds,dailyrainin,SolarRadiationWatts/m^2,SoftwareType,DateUTC
2013-07-08 00:02:00,74.0,70.0,30.00,WSW,257,0.0,-999.0,88,-99.99,,,-99.99,0.000000,,2013-07-08 04:02:00,
2013-07-08 00:12:00,74.0,70.0,29.99,WSW,257,0.0,-999.0,88,-99.99,,,-99.99,0.000000,,2013-07-08 04:12:00,
2013-07-08 00:22:00,74.0,70.0,29.99,WSW,257,0.0,-999.0,88,-99.99,,,-99.99,0.000000,,2013-07-08 04:22:00,
2013-07-08 00:33:00,75.0,71.0,29.99,WSW,257,0.0,-999.0,87,-99.99,,,-99.99,0.000000,,2013-07-08 04:33:00,
2013-07-08 00:42:00,75.0,71.0,29.99,WSW,257,0.0,-999.0,87,-99.99,,,-99.99,0.000000,,2013-07-08 04:42:00,
2013-07-08 00:53:00,75.0,71.0,29.99,WSW,257,0.0,-999.0,87,-99.99,,,-99.99,0.000000,,2013-07-08 04:53:00,
2013-07-08 01:01:00,75.0,71.0,29.99,WSW,257,0.0,-999.0,87,-99.99,,,-99.99,0.000000,,2013-07-08 05:01:00,
2013-07-08 01:12:00,74.0,70.0,30.00,WSW,250,0.0,-999.0,87,-99.99,,,-99.99,0.000000,,2013-07-08 05:12:00,
2013-07-08 01:22:00,74.0,70.0,30.00,WSW,250,0.0,-999.0,87,-99.99,,,-99.99,0.000000,,2013-07-08 05:22:00,
2013-07-08 01:33:00,74.0,70.0,30.00,WSW,250,0.0,-999.0,88,-99.99,,,-99.99,0.000000,,2013-07-08 05:33:00,
2013-07-08 01:43:00,74.0,70.0,30.00,WSW,250,0.0,-999.0,88,-99.99,,,-99.99,0.000000,,2013-07-08 05:43:00,
2013-07-08 01:53:00,74.0,70.0,30.00,WSW,250,0.0,-999.0,88,-99.99,,,-99.99,0.000000,,2013-07-08 05:53:00,
2013-07-08 02:01:00,74.0,71.0,29.99,WSW,250,0.0,-999.0,89,-99.99,,,-99.99,0.000000,,2013-07-08 06:01:00,
2013-07-08 02:12:00,74.0,71.0,29.98,WSW,248,0.0,-999.0,89,-99.99,,,-99.99,0.000000,,2013-07-08 06:12:00,
2013-07-08 02:22:00,74.0,71.0,29.98,WSW,248,0.0,-999.0,89,-99.99,,,-99.99,0.000000,,2013-07-08 06:22:00,
2013-07-08 02:34:00,74.0,71.0,29.98,WSW,246,0.0,-999.0,89,-99.99,,,-99.99,0.000000,,2013-07-08 06:34:00,
2013-07-08 02:43:00,74.0,71.0,29.99,WSW,246,0.0,-999.0,89,-99.99,,,-99.99,0.000000,,2013-07-08 06:43:00,
2013-07-08 02:53:00,74.0,71.0,29.99,WSW,246,0.0,-999.0,89,-99.99,,,-99.99,0.000000,,2013-07-08 06:53:00,
2013-07-08 03:02:00,74.0,71.0,29.98,WSW,246,0.0,-999.0,89,-99.99,,,-99.99,0.000000,,2013-07-08 07:02:00,
2013-07-08 03:12:00,74.0,71.0,29.98,WSW,246,0.0,-999.0,89,-99.99,,,-99.99,0.000000,,2013-07-08 07:12:00,
2013-07-08 03:22:00,74.0,71.0,29.98,WSW,246,0.0,-999.0,89,-99.99,,,-99.99,0.000000,,2013-07-08 07:22:00,
2013-07-08 03:34:00,74.0,71.0,29.98,WSW,246,0.0,-999.0,89,-99.99,,,-99.99,0.000000,,2013-07-08 07:34:00,
2013-07-08 03:44:00,74.0,71.0,29.98,WSW,246,0.0,-999.0,89,-99.99,,,-99.99,0.000000,,2013-07-08 07:44:00,
2013-07-08 03:53:00,74.0,71.0,29.99,WSW,246,0.0,-999.0,90,-99.99,,,-99.99,0.000000,,2013-07-08 07:53:00,
2013-07-08 04:02:00,74.0,71.0,29.99,WSW,246,0.0,-999.0,90,-99.99,,,-99.99,0.000000,,2013-07-08 08:02:00,
2013-07-08 04:12:00,74.0,71.0,29.99,WSW,246,0.0,-999.0,90,-99.99,,,-99.99,0.000000,,2013-07-08 08:12:00,
2013-07-08 04:22:00,74.0,71.0,30.00,WSW,246,0.0,-999.0,91,-99.99,,,-99.99,0.000000,,2013-07-08 08:22:00,
2013-07-08 04:33:00,74.0,71.0,29.99,WSW,246,0.0,-999.0,91,-99.99,,,-99.99,0.000000,,2013-07-08 08:33:00,
2013-07-08 04:42:00,74.0,71.0,29.99,WSW,246,0.0,-999.0,91,-99.99,,,-99.99,0.000000,,2013-07-08 08:42:00,
2013-07-08 04:53:00,73.0,70.0,29.99,WSW,246,0.0,-999.0,91,-99.99,,,-99.99,0.000000,,2013-07-08 08:53:00,
2013-07-08 05:02:00,73.0,71.0,29.99,WSW,246,0.0,-999.0,92,-99.99,,,-99.99,0.000000,,2013-07-08 09:02:00,
2013-07-08 05:11:00,73.0,71.0,29.99,WSW,246,0.0,-999.0,92,-99.99,,,-99.99,0.000000,,2013-07-08 09:11:00,
2013-07-08 05:22:00,73.0,71.0,29.98,WSW,246,0.0,-999.0,92,-99.99,,,-99.99,0.000000,,2013-07-08 09:22:00,
2013-07-08 05:34:00,73.0,71.0,29.99,WSW,246,0.0,-999.0,93,-99.99,,,-99.99,0.000000,,2013-07-08 09:34:00,
2013-07-08 05:43:00,73.0,71.0,29.99,WSW,246,0.0,-999.0,93,-99.99,,,-99.99,0.000000,,2013-07-08 09:43:00,
2013-07-08 05:53:00,73.0,71.0,29.99,WSW,246,0.0,-999.0,92,-99.99,,,-99.99,0.000000,,2013-07-08 09:53:00,
2013-07-08 06:02:00,73.0,71.0,29.98,WSW,246,0.0,-999.0,92,-99.99,,,-99.99,0.000000,,2013-07-08 10:02:00,
2013-07-08 06:11:00,73.0,71.0,29.98,WSW,246,0.0,-999.0,92,-99.99,,,-99.99,0.000000,,2013-07-08 10:11:00,
2013-07-08 06:22:00,72.0,70.0,29.99,WSW,246,0.0,-999.0,93,-99.99,,,-99.99,0.000000,,2013-07-08 10:22:00,
2013-07-08 06:34:00,72.0,70.0,29.99,WSW,246,0.0,-999.0,93,-99.99,,,-99.99,0.000000,,2013-07-08 10:34:00,
2013-07-08 06:43:00,72.0,70.0,29.99,WSW,246,0.0,-999.0,93,-99.99,,,-99.99,0.000000,,2013-07-08 10:43:00,
2013-07-08 06:53:00,72.0,70.0,29.99,WSW,246,0.0,-999.0,94,-99.99,,,-99.99,11.000000,,2013-07-08 10:53:00,
2013-07-08 07:02:00,73.0,71.0,29.99,WSW,246,0.0,-999.0,94,-99.99,,,-99.99,14.000000,,2013-07-08 11:02:00,
2013-07-08 07:11:00,73.0,71.0,29.99,WSW,246,0.0,-999.0,94,-99.99,,,-99.99,14.000000,,2013-07-08 11:11:00,
2013-07-08 07:23:00,73.0,71.0,29.99,WSW,244,0.0,-999.0,93,-99.99,,,-99.99,30.000000,,2013-07-08 11:23:00,
2013-07-08 07:33:00,73.0,71.0,29.99,WSW,244,0.0,-999.0,93,-99.99,,,-99.99,30.000000,,2013-07-08 11:33:00,
2013-07-08 07:43:00,73.0,71.0,29.99,WSW,244,0.0,-999.0,93,-99.99,,,-99.99,44.000000,,2013-07-08 11:43:00,
2013-07-08 07:53:00,74.0,72.0,29.99,WSW,244,0.0,-999.0,93,-99.99,,,-99.99,70.000000,,2013-07-08 11:53:00,
2013-07-08 08:01:00,74.0,72.0,29.99,WSW,244,0.0,-999.0,93,-99.99,,,-99.99,70.000000,,2013-07-08 12:01:00,
2013-07-08 08:11:00,74.0,72.0,29.98,WSW,244,0.0,-999.0,92,-99.99,,,-99.99,83.000000,,2013-07-08 12:11:00,
2013-07-08 08:22:00,74.0,71.0,29.98,WSW,244,0.0,-999.0,91,-99.99,,,-99.99,105.000000,,2013-07-08 12:22:00,
2013-07-08 08:34:00,74.0,71.0,29.98,WSW,244,0.0,-999.0,91,-99.99,,,-99.99,105.000000,,2013-07-08 12:34:00,
2013-07-08 08:43:00,75.0,72.0,29.98,WSW,244,0.0,-999.0,90,-99.99,,,-99.99,197.000000,,2013-07-08 12:43:00,
2013-07-08 08:53:00,75.0,72.0,29.98,WSW,244,0.0,-999.0,90,-99.99,,,-99.99,197.000000,,2013-07-08 12:53:00,
2013-07-08 09:02:00,76.0,73.0,29.99,WSW,243,0.0,-999.0,89,-99.99,,,-99.99,84.000000,,2013-07-08 13:02:00,
2013-07-08 09:11:00,75.0,72.0,29.99,WSW,242,0.0,-999.0,89,-99.99,,,-99.99,62.000000,,2013-07-08 13:11:00,
2013-07-08 09:22:00,76.0,73.0,29.99,SW,223,0.0,-999.0,89,-99.99,,,-99.99,109.000000,,2013-07-08 13:22:00,
2013-07-08 09:33:00,76.0,73.0,29.99,SW,223,0.0,-999.0,89,-99.99,,,-99.99,109.000000,,2013-07-08 13:33:00,
2013-07-08 09:42:00,76.0,72.0,29.99,SW,223,0.0,-999.0,88,-99.99,,,-99.99,167.000000,,2013-07-08 13:42:00,
2013-07-08 09:53:00,76.0,72.0,29.99,SW,223,0.0,-999.0,88,-99.99,,,-99.99,167.000000,,2013-07-08 13:53:00,
2013-07-08 10:02:00,77.0,73.0,30.00,SW,224,0.0,-999.0,87,-99.99,,,-99.99,116.000000,,2013-07-08 14:02:00,
2013-07-08 10:12:00,77.0,73.0,30.00,WSW,239,0.0,-999.0,87,-99.99,,,-99.99,162.000000,,2013-07-08 14:12:00,
2013-07-08 10:22:00,77.0,73.0,30.00,WSW,239,0.0,-999.0,87,-99.99,,,-99.99,162.000000,,2013-07-08 14:22:00,
2013-07-08 10:34:00,78.0,73.0,30.00,SW,234,1.0,-999.0,85,-99.99,,,-99.99,257.000000,,2013-07-08 14:34:00,
2013-07-08 10:43:00,78.0,73.0,30.01,WSW,242,1.0,-999.0,84,-99.99,,,-99.99,127.000000,,2013-07-08 14:43:00,
2013-07-08 10:53:00,78.0,73.0,30.01,WSW,242,1.0,-999.0,84,-99.99,,,-99.99,127.000000,,2013-07-08 14:53:00,
2013-07-08 11:11:00,79.0,72.0,30.01,WSW,257,4.0,-999.0,80,-99.99,,,-99.99,188.000000,,2013-07-08 15:11:00,
2013-07-08 11:22:00,78.0,71.0,30.02,WSW,238,6.0,-999.0,79,-99.99,,,-99.99,123.000000,,2013-07-08 15:22:00,
2013-07-08 11:43:00,76.0,71.0,30.03,WSW,255,3.0,-999.0,85,-99.99,,,-99.99,83.000000,,2013-07-08 15:43:00,
2013-07-08 11:53:00,76.0,71.0,30.03,WSW,255,3.0,-999.0,85,-99.99,,,-99.99,83.000000,,2013-07-08 15:53:00,
2013-07-08 12:22:00,74.0,71.0,30.03,WSW,255,1.0,-999.0,90,-99.99,,,-99.99,204.000000,,2013-07-08 16:22:00,
2013-07-08 12:43:00,74.0,72.0,30.01,WSW,249,0.0,-999.0,92,-99.99,,,-99.99,257.000000,,2013-07-08 16:43:00,
2013-07-08 12:55:00,74.0,72.0,30.01,WSW,249,0.0,-999.0,92,-99.99,,,-99.99,257.000000,,2013-07-08 16:55:00,
2013-07-08 13:14:00,74.0,72.0,30.01,SW,219,0.0,-999.0,93,-99.99,,,-99.99,316.000000,,2013-07-08 17:14:00,
2013-07-08 13:54:00,77.0,72.0,29.99,SSE,153,1.0,-999.0,86,-99.99,,,-99.99,229.000000,,2013-07-08 17:54:00,
2013-07-08 14:34:00,76.0,71.0,29.99,WSW,242,1.0,-999.0,85,-99.99,,,-99.99,114.000000,,2013-07-08 18:34:00,
2013-07-08 14:56:00,76.0,70.0,29.99,WSW,254,2.0,-999.0,83,-99.99,,,-99.99,100.000000,,2013-07-08 18:56:00,
2013-07-08 15:19:00,76.0,70.0,29.99,WSW,237,2.0,-999.0,83,-99.99,,,-99.99,146.000000,,2013-07-08 19:19:00,
2013-07-08 15:38:00,75.0,69.0,29.98,WSW,247,2.0,-999.0,82,-99.99,,,-99.99,77.000000,,2013-07-08 19:38:00,
2013-07-08 15:52:00,75.0,69.0,29.98,WSW,247,2.0,-999.0,82,-99.99,,,-99.99,77.000000,,2013-07-08 19:52:00,
2013-07-08 16:06:00,75.0,69.0,29.98,South,179,1.0,-999.0,83,-99.99,,,-99.99,60.000000,,2013-07-08 20:06:00,
2013-07-08 16:13:00,75.0,69.0,29.98,WSW,237,1.0,-999.0,83,-99.99,,,-99.99,79.000000,,2013-07-08 20:13:00,
2013-07-08 16:22:00,75.0,69.0,29.98,WSW,237,1.0,-999.0,83,-99.99,,,-99.99,79.000000,,2013-07-08 20:22:00,
2013-07-08 16:43:00,76.0,70.0,29.97,WSW,243,1.0,-999.0,82,-99.99,,,-99.99,257.000000,,2013-07-08 20:43:00,
2013-07-08 17:08:00,77.0,70.0,29.97,SW,227,1.0,-999.0,79,-99.99,,,-99.99,192.000000,,2013-07-08 21:08:00,
2013-07-08 17:14:00,77.0,70.0,29.97,SW,231,1.0,-999.0,78,-99.99,,,-99.99,132.000000,,2013-07-08 21:14:00,
2013-07-08 17:21:00,77.0,70.0,29.97,SW,231,1.0,-999.0,78,-99.99,,,-99.99,132.000000,,2013-07-08 21:21:00,
2013-07-08 17:42:00,76.0,69.0,29.97,SW,232,4.0,-999.0,80,-99.99,,,-99.99,105.000000,,2013-07-08 21:42:00,
2013-07-08 17:52:00,76.0,69.0,29.97,SW,232,4.0,-999.0,80,-99.99,,,-99.99,105.000000,,2013-07-08 21:52:00,
2013-07-08 18:09:00,76.0,70.0,29.97,West,263,2.0,-999.0,81,-99.99,,,-99.99,148.000000,,2013-07-08 22:09:00,
2013-07-08 18:16:00,77.0,70.0,29.96,West,277,4.0,-999.0,80,-99.99,,,-99.99,241.000000,,2013-07-08 22:16:00,
2013-07-08 18:23:00,77.0,70.0,29.96,West,277,4.0,-999.0,80,-99.99,,,-99.99,241.000000,,2013-07-08 22:23:00,
2013-07-08 19:09:00,77.0,71.0,29.96,SW,219,1.0,-999.0,81,-99.99,,,-99.99,105.000000,,2013-07-08 23:09:00,
2013-07-08 19:15:00,77.0,71.0,29.96,SW,219,1.0,-999.0,81,-99.99,,,-99.99,105.000000,,2013-07-08 23:15:00,
2013-07-08 19:22:00,77.0,71.0,29.96,SSW,205,1.0,-999.0,81,-99.99,,,-99.99,130.000000,,2013-07-08 23:22:00,
2013-07-08 19:54:00,76.0,70.0,29.97,SSW,209,0.0,-999.0,83,-99.99,,,-99.99,51.000000,,2013-07-08 23:54:00,
2013-07-08 20:00:00,76.0,71.0,29.97,SSW,209,0.0,-999.0,85,-99.99,,,-99.99,81.000000,,2013-07-09 00:00:00,
2013-07-08 20:16:00,76.0,71.0,29.97,SSW,209,0.0,-999.0,85,-99.99,,,-99.99,81.000000,,2013-07-09 00:16:00,
2013-07-08 20:23:00,76.0,71.0,29.97,SW,216,0.0,-999.0,85,-99.99,,,-99.99,54.000000,,2013-07-09 00:23:00,
2013-07-08 20:42:00,76.0,71.0,29.97,SW,216,0.0,-999.0,85,-99.99,,,-99.99,56.000000,,2013-07-09 00:42:00,
2013-07-08 21:33:00,75.0,71.0,29.97,SW,216,0.0,-999.0,87,-99.99,,,-99.99,11.000000,,2013-07-09 01:33:00,
2013-07-08 21:43:00,75.0,71.0,29.97,SW,216,0.0,-999.0,88,-99.99,,,-99.99,9.000000,,2013-07-09 01:43:00,
2013-07-08 21:54:00,75.0,71.0,29.97,SW,216,0.0,-999.0,88,-99.99,,,-99.99,9.000000,,2013-07-09 01:54:00,
2013-07-08 22:27:00,-999.0,-99.9,29.97,SW,216,0.0,-999.0,88,-99.99,,,-99.99,0.000000,,2013-07-09 02:27:00,
2013-07-08 22:45:00,74.0,70.0,29.98,SW,216,0.0,-999.0,88,-99.99,,,-99.99,0.000000,,2013-07-09 02:45:00,
2013-07-08 23:14:00,73.0,69.0,29.98,SW,216,0.0,-999.0,88,-99.99,,,-99.99,0.000000,,2013-07-09 03:14:00,
2013-07-08 23:33:00,73.0,69.0,29.98,SW,216,0.0,-999.0,88,-99.99,,,-99.99,0.000000,,2013-07-09 03:33:00,